Time;durP1;ratioP1;P1;durP2;ratioP2;P2;SDS_P1;SDS_P2;PMS_P1;PMS_P2;Temp;Humidity;BMP_temperature;BMP_pressure;BME280_temperature;BME280_humidity;BME280_pressure;Samples;Min_cycle;Max_cycle;Signal;HPM_P1;HPM_P2
2022/11/23 00:01:37;;;;;;;;;16.00;13.50;;;;;20.84;55.24;99149.28;5018956;28;45311;-61
2022/11/23 00:04:06;;;;;;;;;10.25;9.50;;;;;20.84;55.52;99148.44;5022307;28;45375;-60
2022/11/23 00:06:31;;;;;;;;;16.00;11.25;;;;;20.82;55.35;99145.88;5023065;28;46471;-60
2022/11/23 00:08:57;;;;;;;;;15.25;14.00;;;;;20.82;55.52;99148.53;5022886;28;45408;-61
2022/11/23 00:11:23;;;;;;;;;15.75;13.50;;;;;20.82;55.43;99137.91;4985464;28;45304;-60
2022/11/23 00:13:48;;;;;;;;;15.50;10.25;;;;;20.83;55.31;99139.63;5021340;28;45460;-61
2022/11/23 00:16:16;;;;;;;;;14.00;12.75;;;;;20.83;55.17;99141.41;5021669;28;45314;-61
2022/11/23 00:18:41;;;;;;;;;14.75;12.50;;;;;20.82;55.16;99137.06;5021666;28;45319;-62
2022/11/23 00:21:11;;;;;;;;;13.75;10.25;;;;;20.81;55.15;99128.25;5021687;28;45277;-60
2022/11/23 00:23:36;;;;;;;;;15.25;8.25;;;;;20.81;55.21;99130.06;5021586;28;45266;-61
2022/11/23 00:26:02;;;;;;;;;11.50;10.00;;;;;20.80;55.51;99131.84;5021235;28;49468;-61
2022/11/23 00:28:27;;;;;;;;;13.75;11.50;;;;;20.79;55.11;99140.75;5005013;28;45279;-59
2022/11/23 00:30:53;;;;;;;;;13.00;12.00;;;;;20.78;55.30;99135.56;5022611;28;45204;-60
2022/11/23 00:33:18;;;;;;;;;8.75;8.25;;;;;20.78;54.88;99140.84;5022379;28;45457;-61
2022/11/23 00:35:43;;;;;;;;;13.75;11.00;;;;;20.78;54.76;99144.34;5021489;28;75654;-60
2022/11/23 00:38:09;;;;;;;;;13.00;9.75;;;;;20.77;55.15;99132.03;5022776;28;45397;-61
2022/11/23 00:40:34;;;;;;;;;14.50;10.75;;;;;20.77;55.22;99136.50;5022009;28;63032;-61
2022/11/23 00:43:00;;;;;;;;;14.75;9.50;;;;;20.77;55.12;99133.84;5021664;28;57852;-61
2022/11/23 00:45:25;;;;;;;;;15.50;9.75;;;;;20.77;55.19;99133.84;5021398;28;73305;-62
2022/11/23 00:47:50;;;;;;;;;12.75;9.00;;;;;20.77;55.08;99126.75;5021347;28;70316;-61
2022/11/23 00:50:16;;;;;;;;;14.25;12.75;;;;;20.77;54.93;99125.88;5021372;28;65715;-61
2022/11/23 00:52:41;;;;;;;;;13.00;11.50;;;;;20.76;55.01;99125.03;5019818;28;72122;-61
2022/11/23 00:55:07;;;;;;;;;10.25;8.25;;;;;20.75;54.95;99118.00;5022249;28;45317;-61
2022/11/23 00:57:33;;;;;;;;;11.25;8.25;;;;;20.76;54.99;99118.84;5021968;28;45267;-61
2022/11/23 00:59:58;;;;;;;;;8.25;7.75;;;;;20.75;54.86;99123.31;5020932;28;45278;-61
2022/11/23 01:02:24;;;;;;;;;12.50;11.25;;;;;20.75;55.07;99118.00;5021778;28;45436;-61
2022/11/23 01:04:49;;;;;;;;;8.50;6.75;;;;;20.74;55.14;99105.69;5020594;28;47073;-60
2022/11/23 01:07:14;;;;;;;;;9.25;8.00;;;;;20.75;54.86;99118.00;5021064;28;67363;-60
2022/11/23 01:09:40;;;;;;;;;10.75;9.00;;;;;20.74;55.24;99118.94;5003334;28;66435;-61
2022/11/23 01:12:05;;;;;;;;;12.25;10.25;;;;;20.75;55.03;99114.50;5020047;28;55526;-60
2022/11/23 01:14:30;;;;;;;;;10.50;10.50;;;;;20.74;55.25;99115.44;5020323;28;68072;-60
2022/11/23 01:16:56;;;;;;;;;14.25;10.00;;;;;20.73;55.24;99111.09;5019942;28;59348;-61
2022/11/23 01:19:21;;;;;;;;;10.75;9.75;;;;;20.74;55.33;99105.69;4986838;28;63082;-61
2022/11/23 01:21:47;;;;;;;;;11.50;10.00;;;;;20.73;55.24;99101.34;5020411;28;45211;-61
2022/11/23 01:24:14;;;;;;;;;10.75;7.75;;;;;20.73;55.48;99098.69;5021688;28;45316;-60
2022/11/23 01:26:40;;;;;;;;;12.50;9.00;;;;;20.73;55.60;99095.19;5021645;28;45342;-60
2022/11/23 01:29:05;;;;;;;;;11.75;9.50;;;;;20.73;55.03;99088.06;5020362;28;45284;-61
2022/11/23 01:31:31;;;;;;;;;10.75;9.25;;;;;20.73;55.17;99085.44;5021712;28;45209;-60
2022/11/23 01:33:58;;;;;;;;;6.50;5.50;;;;;20.73;55.30;99076.63;5003480;28;46325;-61
2022/11/23 01:36:28;;;;;;;;;12.25;9.00;;;;;20.73;54.94;99077.47;5021464;28;45314;-61
2022/11/23 01:38:54;;;;;;;;;10.00;9.25;;;;;20.73;55.11;99069.53;5003858;28;45415;-60
2022/11/23 01:41:27;;;;;;;;;17.75;11.25;;;;;20.73;55.53;99071.31;5020490;28;45338;-60
2022/11/23 01:43:52;;;;;;;;;14.00;11.25;;;;;20.73;55.49;99066.88;5021439;28;46583;-61
2022/11/23 01:46:18;;;;;;;;;15.50;11.75;;;;;20.72;55.43;99075.78;5020604;28;62682;-61
2022/11/23 01:49:02;;;;;;;;;12.75;8.75;;;;;20.73;55.45;99069.53;5021380;28;45243;-61
2022/11/23 01:51:35;;;;;;;;;10.75;8.50;;;;;20.73;55.33;99061.56;5021420;28;45220;-61
2022/11/23 01:54:03;;;;;;;;;12.25;8.00;;;;;20.72;55.34;99059.00;5019870;28;46531;-61
2022/11/23 01:56:32;;;;;;;;;9.25;9.25;;;;;20.73;55.33;99063.38;5020068;28;45403;-61
2022/11/23 01:58:59;;;;;;;;;9.00;8.50;;;;;20.73;55.53;99063.38;4987327;28;45348;-61
2022/11/23 02:01:24;;;;;;;;;9.00;9.00;;;;;20.72;55.51;99061.66;5003234;28;45195;-62
2022/11/23 02:03:50;;;;;;;;;10.75;7.75;;;;;20.71;55.24;99063.47;5020846;28;46154;-61
2022/11/23 02:06:18;;;;;;;;;10.50;8.50;;;;;20.71;55.18;99066.13;5002636;28;71353;-61
2022/11/23 02:08:44;;;;;;;;;9.25;8.75;;;;;20.69;55.31;99064.50;5021026;28;45291;-61
2022/11/23 02:11:10;;;;;;;;;13.50;8.25;;;;;20.71;55.53;99055.50;5003416;28;45564;-60
2022/11/23 02:13:36;;;;;;;;;8.25;8.25;;;;;20.70;55.37;99051.16;5019277;28;45458;-60
2022/11/23 02:16:01;;;;;;;;;11.00;11.00;;;;;20.71;55.22;99054.66;5018668;28;72835;-60
2022/11/23 02:18:29;;;;;;;;;9.50;8.00;;;;;20.70;55.21;99048.50;5020624;28;45949;-60
2022/11/23 02:20:56;;;;;;;;;11.50;9.75;;;;;20.71;55.13;99049.34;5019893;28;45184;-61
2022/11/23 02:23:40;;;;;;;;;11.50;9.00;;;;;20.71;55.22;99046.72;4986519;28;47772;-60
2022/11/23 02:26:08;;;;;;;;;12.75;11.00;;;;;20.70;55.23;99055.59;5019327;28;45294;-61
2022/11/23 02:28:44;;;;;;;;;11.00;9.25;;;;;20.69;55.26;99049.44;5019604;28;45371;-61
2022/11/23 02:31:10;;;;;;;;;15.75;12.00;;;;;20.71;55.17;99049.34;5019574;28;45315;-61
2022/11/23 02:33:38;;;;;;;;;14.25;10.25;;;;;20.69;55.52;99046.81;5018235;28;68494;-61
2022/11/23 02:36:26;;;;;;;;;11.50;8.75;;;;;20.69;55.09;99044.16;5019627;28;45233;-61
2022/11/23 02:38:51;;;;;;;;;7.50;7.50;;;;;20.69;55.20;99044.16;5019850;28;45310;-61
2022/11/23 02:41:16;;;;;;;;;9.50;8.50;;;;;20.69;55.39;99038.84;5020540;28;45325;-61
2022/11/23 02:43:42;;;;;;;;;12.50;10.75;;;;;20.69;55.05;99035.34;5019470;28;71779;-61
2022/11/23 02:46:07;;;;;;;;;12.25;10.00;;;;;20.68;55.12;99025.69;5001990;28;64987;-61
2022/11/23 02:48:34;;;;;;;;;12.75;10.75;;;;;20.69;55.09;99030.03;5020513;28;45406;-61
2022/11/23 02:50:59;;;;;;;;;10.00;10.00;;;;;20.69;55.21;99024.75;5020359;28;45333;-61
2022/11/23 02:53:25;;;;;;;;;9.75;8.50;;;;;20.69;55.05;99025.59;5020313;28;45390;-61
2022/11/23 02:55:50;;;;;;;;;9.50;9.25;;;;;20.69;55.30;99017.63;5019400;28;65427;-60
2022/11/23 02:58:15;;;;;;;;;8.75;7.25;;;;;20.69;55.41;99016.78;5020038;28;46059;-61
2022/11/23 03:00:41;;;;;;;;;12.00;8.00;;;;;20.68;55.25;99015.94;5018040;28;71844;-61
2022/11/23 03:03:06;;;;;;;;;15.50;11.00;;;;;20.69;55.28;99011.50;5019149;28;73635;-61
2022/11/23 03:05:32;;;;;;;;;9.50;8.00;;;;;20.68;55.32;99009.78;5020126;28;45247;-61
2022/11/23 03:07:57;;;;;;;;;11.50;8.00;;;;;20.68;55.27;99007.13;5019564;28;45248;-60
2022/11/23 03:10:23;;;;;;;;;11.50;10.25;;;;;20.67;55.28;99006.25;5020229;28;46501;-60
2022/11/23 03:12:48;;;;;;;;;9.50;8.75;;;;;20.67;55.47;99011.56;5019665;28;53361;-60
2022/11/23 03:15:13;;;;;;;;;9.50;7.25;;;;;20.67;55.36;99000.09;5019158;28;73748;-60
2022/11/23 03:17:39;;;;;;;;;9.75;8.00;;;;;20.66;55.09;98993.09;5020461;28;45196;-61
2022/11/23 03:20:05;;;;;;;;;8.25;7.50;;;;;20.66;55.13;98986.00;5019225;28;63347;-60
2022/11/23 03:22:30;;;;;;;;;12.75;9.75;;;;;20.66;55.38;98987.78;5019869;28;46116;-60
2022/11/23 03:24:56;;;;;;;;;8.25;8.25;;;;;20.66;55.54;98991.28;5017943;28;63450;-60
2022/11/23 03:27:22;;;;;;;;;10.75;9.00;;;;;20.67;55.09;98986.84;5019132;28;45231;-61
2022/11/23 03:29:47;;;;;;;;;13.75;11.00;;;;;20.66;55.35;98985.13;5018305;28;45597;-62
2022/11/23 03:32:12;;;;;;;;;9.00;7.25;;;;;20.66;55.12;98990.44;5019032;28;45262;-60
2022/11/23 03:34:38;;;;;;;;;10.00;7.25;;;;;20.66;55.00;98988.66;5018698;28;70288;-60
2022/11/23 03:37:03;;;;;;;;;11.25;8.00;;;;;20.65;55.08;98989.59;5020786;28;51300;-61
2022/11/23 03:39:29;;;;;;;;;10.00;7.00;;;;;20.65;55.15;98988.75;5023097;28;53172;-61
2022/11/23 03:41:55;;;;;;;;;9.25;9.25;;;;;20.64;55.02;98971.97;5023052;28;58186;-59
2022/11/23 03:44:20;;;;;;;;;13.25;10.50;;;;;20.66;55.13;98969.22;5021860;28;45384;-61
2022/11/23 03:46:45;;;;;;;;;11.75;9.00;;;;;20.65;55.40;98972.84;5022494;28;45858;-61
2022/11/23 03:49:11;;;;;;;;;10.00;9.25;;;;;20.65;55.17;98971.03;5021639;28;45973;-61
2022/11/23 03:51:37;;;;;;;;;11.75;11.00;;;;;20.65;55.24;98975.47;5021849;28;46865;-60
2022/11/23 03:54:02;;;;;;;;;11.50;8.75;;;;;20.64;55.07;98966.69;5022950;28;45312;-59
2022/11/23 03:56:27;;;;;;;;;14.50;8.50;;;;;20.65;55.19;98972.84;5023162;28;45509;-60
2022/11/23 03:58:53;;;;;;;;;10.50;9.50;;;;;20.65;55.38;98967.53;5022050;28;65801;-60
2022/11/23 04:01:19;;;;;;;;;12.25;9.75;;;;;20.65;55.12;98967.53;5020605;28;72860;-61
2022/11/23 04:03:44;;;;;;;;;9.00;8.00;;;;;20.66;55.36;98966.59;5005010;28;45312;-60
2022/11/23 04:06:09;;;;;;;;;11.00;9.25;;;;;20.66;54.94;98967.44;5022053;28;67381;-61
2022/11/23 04:08:35;;;;;;;;;10.00;8.00;;;;;20.65;55.48;98964.88;5022998;28;45145;-61
2022/11/23 04:11:00;;;;;;;;;11.25;8.25;;;;;20.65;55.23;98962.22;5021907;28;69910;-61
2022/11/23 04:13:26;;;;;;;;;8.00;8.00;;;;;20.65;55.19;98965.72;5021278;28;45308;-60
2022/11/23 04:15:51;;;;;;;;;12.00;10.00;;;;;20.63;54.91;98961.47;5021873;28;68946;-60
2022/11/23 04:18:16;;;;;;;;;12.50;10.50;;;;;20.64;55.30;98961.38;5022206;28;60812;-61
2022/11/23 04:20:42;;;;;;;;;9.50;8.00;;;;;20.64;55.11;98957.88;5003853;28;72220;-60
2022/11/23 04:23:07;;;;;;;;;12.25;11.00;;;;;20.63;55.08;98953.53;5022588;28;50325;-61
2022/11/23 04:25:32;;;;;;;;;10.50;8.50;;;;;20.62;55.46;98957.13;5022821;28;45882;-61
2022/11/23 04:27:58;;;;;;;;;10.25;7.75;;;;;20.63;55.02;98956.19;5022267;28;51989;-61
2022/11/23 04:30:23;;;;;;;;;7.00;6.50;;;;;20.62;55.21;98955.31;5022335;28;47504;-61
2022/11/23 04:32:49;;;;;;;;;13.75;9.75;;;;;20.62;54.90;98941.22;5021760;28;71900;-61
2022/11/23 04:35:14;;;;;;;;;9.25;7.75;;;;;20.62;55.21;98938.56;5022625;28;45796;-61
2022/11/23 04:37:39;;;;;;;;;10.00;7.25;;;;;20.63;55.27;98942.94;5022164;28;67446;-61
2022/11/23 04:40:05;;;;;;;;;11.75;9.25;;;;;20.61;55.06;98940.38;5022216;28;45478;-60
2022/11/23 04:42:31;;;;;;;;;10.00;8.50;;;;;20.61;55.17;98937.72;5022389;28;45327;-61
2022/11/23 04:44:56;;;;;;;;;7.50;7.25;;;;;20.62;55.13;98935.91;5022329;28;45404;-60
2022/11/23 04:47:23;;;;;;;;;12.50;7.00;;;;;20.63;55.12;98942.94;5022289;28;45394;-61
2022/11/23 04:49:48;;;;;;;;;7.00;6.00;;;;;20.62;55.32;98931.47;5020883;28;46769;-60
2022/11/23 04:52:13;;;;;;;;;10.00;7.00;;;;;20.63;55.00;98934.97;5021613;28;61901;-60
2022/11/23 04:54:39;;;;;;;;;9.00;7.50;;;;;20.63;55.13;98924.38;5004444;28;45282;-60
2022/11/23 04:57:04;;;;;;;;;9.50;7.75;;;;;20.62;55.17;98926.16;5021434;28;64435;-61
2022/11/23 04:59:29;;;;;;;;;8.00;6.25;;;;;20.65;55.17;98923.31;5020177;28;56645;-60
2022/11/23 05:01:55;;;;;;;;;8.25;7.75;;;;;20.65;55.27;98922.47;5003947;28;57619;-61
2022/11/23 05:04:20;;;;;;;;;12.50;9.00;;;;;20.66;55.20;98916.22;5022082;28;45224;-60
2022/11/23 05:06:46;;;;;;;;;8.75;8.00;;;;;20.65;55.31;98915.38;5022253;28;45204;-61
2022/11/23 05:09:11;;;;;;;;;8.75;8.00;;;;;20.65;55.08;98912.72;5019852;28;65124;-61
2022/11/23 05:11:37;;;;;;;;;6.25;5.75;;;;;20.66;55.44;98911.78;5022113;28;45290;-61
2022/11/23 05:14:02;;;;;;;;;9.50;7.25;;;;;20.66;55.08;98916.22;5019548;28;65272;-61
2022/11/23 05:16:27;;;;;;;;;7.50;7.00;;;;;20.66;55.23;98906.47;5022035;28;45437;-61
2022/11/23 05:18:53;;;;;;;;;9.75;7.00;;;;;20.68;55.19;98906.41;5020808;28;66971;-60
2022/11/23 05:21:18;;;;;;;;;8.25;8.25;;;;;20.68;55.49;98901.94;5020970;28;69030;-61
2022/11/23 05:23:43;;;;;;;;;12.50;7.75;;;;;20.69;55.45;98906.31;5021965;28;45247;-60
2022/11/23 05:26:09;;;;;;;;;6.25;5.00;;;;;20.70;55.23;98915.09;4987481;28;47958;-61
2022/11/23 05:28:36;;;;;;;;;8.00;7.00;;;;;20.70;55.90;98910.66;5021425;28;46428;-60
2022/11/23 05:31:01;;;;;;;;;8.00;6.25;;;;;20.71;55.36;98920.31;5020570;28;45399;-60
2022/11/23 05:33:26;;;;;;;;;7.50;7.50;;;;;20.72;55.57;98914.06;5020547;28;45232;-61
2022/11/23 05:35:52;;;;;;;;;7.75;6.00;;;;;20.72;55.44;98913.19;5019648;28;60437;-60
2022/11/23 05:38:17;;;;;;;;;8.00;7.25;;;;;20.72;55.68;98919.34;5020576;28;69333;-61
2022/11/23 05:40:44;;;;;;;;;6.25;6.25;;;;;20.74;55.36;98922.75;5020656;28;69629;-61
2022/11/23 05:43:09;;;;;;;;;7.50;6.75;;;;;20.74;55.14;98914.81;5020321;28;45406;-61
2022/11/23 05:45:35;;;;;;;;;6.25;6.25;;;;;20.75;55.31;98920.97;5021416;28;47299;-60
2022/11/23 05:48:00;;;;;;;;;9.00;7.75;;;;;20.76;55.39;98920.00;5002487;28;70978;-60
2022/11/23 05:50:26;;;;;;;;;9.25;6.75;;;;;20.75;55.59;98911.19;5021253;28;51988;-61
2022/11/23 05:52:51;;;;;;;;;7.50;6.25;;;;;20.76;55.29;98909.41;5021359;28;45509;-60
2022/11/23 05:55:17;;;;;;;;;8.50;7.50;;;;;20.77;55.46;98905.84;5019574;28;60957;-60
2022/11/23 05:57:42;;;;;;;;;7.75;7.25;;;;;20.78;55.48;98904.88;5020749;28;46033;-61
2022/11/23 06:00:11;;;;;;;;;8.50;6.25;;;;;20.78;55.48;98907.53;5019461;28;45350;-60
2022/11/23 06:02:37;;;;;;;;;6.50;6.00;;;;;20.78;55.53;98900.44;5021267;28;45272;-61
2022/11/23 06:05:02;;;;;;;;;5.50;4.25;;;;;20.79;55.51;98906.59;5019855;28;45282;-61
2022/11/23 06:07:28;;;;;;;;;8.00;6.00;;;;;20.79;55.34;98909.22;5002049;28;47090;-61
2022/11/23 06:09:53;;;;;;;;;7.00;6.25;;;;;20.80;55.80;98903.81;5018330;28;67534;-61
2022/11/23 06:12:18;;;;;;;;;8.00;4.75;;;;;20.78;55.30;98895.13;5019221;28;62635;-61
2022/11/23 06:14:44;;;;;;;;;7.75;6.50;;;;;20.78;55.35;98900.44;5019028;28;58882;-61
2022/11/23 06:17:09;;;;;;;;;8.50;5.50;;;;;20.80;55.34;98902.97;5019135;28;72551;-61
2022/11/23 06:19:34;;;;;;;;;9.75;4.75;;;;;20.81;55.43;98899.38;5018266;28;64682;-61
2022/11/23 06:22:00;;;;;;;;;9.25;6.75;;;;;20.80;55.27;98902.97;5020843;28;50315;-60
2022/11/23 06:24:25;;;;;;;;;6.50;5.75;;;;;20.80;55.32;98893.22;5018924;28;66223;-60
2022/11/23 06:26:51;;;;;;;;;7.25;7.25;;;;;20.81;55.35;98891.41;5020732;28;45209;-61
2022/11/23 06:29:17;;;;;;;;;7.50;7.50;;;;;20.81;55.34;98894.94;5002651;28;45220;-60
2022/11/23 06:31:42;;;;;;;;;5.25;5.25;;;;;20.81;55.57;98886.13;5019218;28;45208;-61
2022/11/23 06:34:08;;;;;;;;;9.25;6.00;;;;;20.81;55.31;98886.13;5019412;28;65078;-61
2022/11/23 06:36:33;;;;;;;;;5.00;5.00;;;;;20.80;55.50;98882.63;5020470;28;47464;-61
2022/11/23 06:38:59;;;;;;;;;7.50;7.25;;;;;20.81;55.68;98865.75;5019412;28;69107;-61
2022/11/23 06:41:24;;;;;;;;;5.75;5.75;;;;;20.81;55.56;98868.41;5019664;28;45364;-61
2022/11/23 06:43:49;;;;;;;;;8.00;6.75;;;;;20.81;55.57;98863.09;5020079;28;45342;-61
2022/11/23 06:46:15;;;;;;;;;5.00;5.00;;;;;20.82;55.60;98859.50;5019230;28;45369;-63
2022/11/23 06:48:44;;;;;;;;;4.00;4.00;;;;;20.82;55.69;98851.56;5018324;28;65235;-60
2022/11/23 06:51:09;;;;;;;;;8.25;5.50;;;;;20.82;55.48;98856.84;5019432;28;45275;-60
2022/11/23 06:53:35;;;;;;;;;5.25;5.25;;;;;20.82;55.78;98854.19;5019032;28;45355;-62
2022/11/23 06:56:00;;;;;;;;;6.75;6.00;;;;;20.84;55.81;98848.78;5018158;28;69434;-60
2022/11/23 06:58:26;;;;;;;;;4.50;3.00;;;;;20.84;55.62;98847.00;5019006;28;45236;-62
2022/11/23 07:00:51;;;;;;;;;8.75;3.50;;;;;20.84;55.67;98847.00;5020114;28;45843;-61
2022/11/23 07:03:19;;;;;;;;;7.50;5.50;;;;;20.86;55.41;98850.44;5019940;28;52294;-61
2022/11/23 07:05:44;;;;;;;;;6.50;4.25;;;;;20.86;55.61;98839.81;5020461;28;45577;-60
2022/11/23 07:08:09;;;;;;;;;5.25;4.00;;;;;20.86;55.84;98839.81;5018133;28;69729;-61
2022/11/23 07:10:35;;;;;;;;;7.50;5.75;;;;;20.87;55.47;98835.38;5019177;28;61303;-61
2022/11/23 07:13:04;;;;;;;;;6.25;6.25;;;;;20.86;55.54;98839.81;5019045;28;45402;-61
2022/11/23 07:15:29;;;;;;;;;4.00;4.00;;;;;20.87;55.47;98843.31;5018695;28;46036;-61
2022/11/23 07:17:55;;;;;;;;;8.50;6.00;;;;;20.86;55.68;98845.13;5019180;28;69662;-62
2022/11/23 07:20:20;;;;;;;;;8.00;7.25;;;;;20.86;55.80;98844.28;5019078;28;64859;-61
2022/11/23 07:22:46;;;;;;;;;5.25;5.25;;;;;20.84;55.54;98847.00;5019655;28;61352;-62
2022/11/23 07:25:15;;;;;;;;;5.75;5.00;;;;;20.86;55.38;98846.94;5018863;28;75265;-61
2022/11/23 07:27:40;;;;;;;;;7.00;5.00;;;;;20.86;55.81;98852.22;5019785;28;45448;-61
2022/11/23 07:30:07;;;;;;;;;6.50;5.75;;;;;20.86;55.55;98841.63;5018708;28;45301;-61
2022/11/23 07:32:32;;;;;;;;;5.00;5.00;;;;;20.86;55.65;98853.06;5019844;28;45315;-60
2022/11/23 07:34:57;;;;;;;;;7.00;6.00;;;;;20.86;55.70;98852.22;5019220;28;55405;-61
2022/11/23 07:37:23;;;;;;;;;7.50;6.25;;;;;20.86;55.49;98850.44;5019847;28;46042;-61
2022/11/23 07:39:48;;;;;;;;;6.00;5.00;;;;;20.87;55.33;98852.13;5018956;28;45355;-60
2022/11/23 07:42:13;;;;;;;;;5.50;5.50;;;;;20.87;55.35;98860.09;5019994;28;45236;-61
2022/11/23 07:44:39;;;;;;;;;5.25;4.50;;;;;20.88;55.17;98863.59;5019310;28;47120;-61
2022/11/23 07:47:04;;;;;;;;;11.25;6.25;;;;;20.88;55.21;98861.78;5019155;28;60898;-60
2022/11/23 07:49:30;;;;;;;;;6.00;6.00;;;;;20.87;55.61;98868.03;5018595;28;66558;-60
2022/11/23 07:51:55;;;;;;;;;5.50;5.50;;;;;20.86;55.11;98855.72;5019079;28;60886;-59
2022/11/23 07:54:21;;;;;;;;;6.75;5.25;;;;;20.87;55.26;98852.13;5019632;28;45263;-60
2022/11/23 07:56:46;;;;;;;;;5.00;5.00;;;;;20.86;55.24;98850.44;5018292;28;45285;-60
2022/11/23 07:59:11;;;;;;;;;4.25;4.25;;;;;20.87;55.24;98856.56;5018591;28;66546;-61
2022/11/23 08:01:37;;;;;;;;;5.00;5.00;;;;;20.87;55.20;98857.44;5019079;28;52873;-60
2022/11/23 08:04:03;;;;;;;;;6.25;4.50;;;;;20.87;55.28;98859.22;5019166;28;50138;-61
2022/11/23 08:06:28;;;;;;;;;6.25;5.50;;;;;20.87;55.20;98861.88;5002081;28;45239;-61
2022/11/23 08:08:54;;;;;;;;;2.50;2.50;;;;;20.87;55.07;98859.22;5018301;28;45217;-60
2022/11/23 08:11:21;;;;;;;;;6.00;4.25;;;;;20.87;55.23;98862.72;5019341;28;45315;-60
2022/11/23 08:13:46;;;;;;;;;3.25;3.25;;;;;20.87;55.29;98860.09;5017616;28;46255;-59
2022/11/23 08:16:11;;;;;;;;;5.00;4.00;;;;;20.87;55.09;98856.56;5019012;28;57979;-61
2022/11/23 08:18:37;;;;;;;;;4.25;4.25;;;;;20.87;55.07;98864.53;5019271;28;45295;-60
2022/11/23 08:21:02;;;;;;;;;3.50;3.50;;;;;20.85;55.12;98854.03;5019536;28;45265;-60
2022/11/23 08:23:28;;;;;;;;;5.00;4.00;;;;;20.85;54.67;98848.72;5020892;28;46028;-60
2022/11/23 08:25:53;;;;;;;;;4.75;4.00;;;;;20.84;54.80;98844.34;5022845;28;45363;-60
2022/11/23 08:28:19;;;;;;;;;5.25;5.25;;;;;20.84;54.85;98833.75;5020316;28;69276;-64
2022/11/23 08:30:44;;;;;;;;;5.00;3.00;;;;;20.84;54.73;98828.44;5022675;28;45462;-60
2022/11/23 08:33:09;;;;;;;;;5.25;4.00;;;;;20.84;54.47;98833.75;5021368;28;70966;-60
2022/11/23 08:35:35;;;;;;;;;4.50;4.00;;;;;20.84;54.56;98823.13;5005118;28;45260;-60
2022/11/23 08:38:01;;;;;;;;;4.75;4.75;;;;;20.86;54.32;98817.75;5021500;28;45287;-61
2022/11/23 08:40:27;;;;;;;;;6.50;3.75;;;;;20.84;54.01;98807.22;5022618;28;45292;-60
2022/11/23 08:42:52;;;;;;;;;5.25;4.75;;;;;20.86;54.17;98799.19;5020952;28;45925;-61
2022/11/23 08:45:17;;;;;;;;;4.50;3.75;;;;;20.85;54.08;98792.19;5020893;28;53967;-60
2022/11/23 08:47:43;;;;;;;;;5.50;5.00;;;;;20.84;54.05;98778.06;5021000;28;49454;-60
2022/11/23 08:50:08;;;;;;;;;6.00;4.00;;;;;20.84;53.90;98777.22;5021043;28;45349;-60
2022/11/23 08:52:34;;;;;;;;;3.75;3.75;;;;;20.84;53.68;98761.28;5022103;28;46067;-60
2022/11/23 08:55:00;;;;;;;;;2.75;2.75;;;;;20.83;53.93;98757.78;5020655;28;58409;-60
2022/11/23 08:57:26;;;;;;;;;5.00;2.25;;;;;20.83;53.79;98764.91;5020977;28;45371;-60
2022/11/23 08:59:51;;;;;;;;;2.50;2.00;;;;;20.83;53.54;98786.97;5021179;28;45352;-60
2022/11/23 09:02:16;;;;;;;;;3.50;3.50;;;;;20.82;53.49;98774.66;5021277;28;64485;-60
2022/11/23 09:04:42;;;;;;;;;5.00;3.50;;;;;20.83;53.50;98770.19;5021342;28;63335;-60
2022/11/23 09:07:07;;;;;;;;;4.50;3.00;;;;;20.83;53.92;98775.50;5022177;28;45681;-60
2022/11/23 09:09:33;;;;;;;;;4.25;3.00;;;;;20.83;53.58;98772.84;5021257;28;65618;-60
2022/11/23 09:11:58;;;;;;;;;4.75;2.50;;;;;20.81;53.33;98759.69;5020109;28;57446;-60
2022/11/23 09:14:24;;;;;;;;;5.50;3.00;;;;;20.82;53.46;98749.94;5020520;28;45317;-60
2022/11/23 09:16:49;;;;;;;;;3.75;3.00;;;;;20.81;53.48;98745.59;5020952;28;45328;-60
2022/11/23 09:19:14;;;;;;;;;2.75;2.75;;;;;20.81;53.61;98750.91;5019769;28;66839;-60
2022/11/23 09:21:41;;;;;;;;;3.75;3.75;;;;;20.80;53.18;98744.75;5021740;28;46025;-60
2022/11/23 09:24:09;;;;;;;;;2.25;2.00;;;;;20.80;53.42;98743.91;5021836;28;45221;-60
2022/11/23 09:26:36;;;;;;;;;4.00;4.00;;;;;20.80;53.33;98749.19;5022090;28;45264;-60
2022/11/23 09:29:02;;;;;;;;;3.50;3.00;;;;;20.80;53.19;98749.19;5004019;28;45523;-60
2022/11/23 09:31:27;;;;;;;;;5.00;5.00;;;;;20.80;53.35;98749.19;5020551;28;45316;-60
2022/11/23 09:33:53;;;;;;;;;4.00;3.50;;;;;20.80;53.30;98741.25;5019826;28;45370;-60
2022/11/23 09:36:18;;;;;;;;;3.00;3.00;;;;;20.79;53.26;98736.91;5021327;28;45267;-60
2022/11/23 09:38:43;;;;;;;;;5.00;4.00;;;;;20.78;53.02;98732.56;5019834;28;60354;-60
2022/11/23 09:41:54;;;;;;;;;3.75;3.75;;;;;20.78;53.09;98741.34;5020248;28;46272;-60
2022/11/23 09:44:51;;;;;;;;;5.50;3.50;;;;;20.78;53.33;98719.28;5020300;28;45431;-60
2022/11/23 09:47:47;;;;;;;;;5.25;4.00;;;;;20.77;53.28;98730.84;5020564;28;45252;-60
2022/11/23 09:50:24;;;;;;;;;5.25;3.75;;;;;20.76;53.03;98730.00;5021362;28;45310;-60
2022/11/23 09:52:50;;;;;;;;;4.75;2.25;;;;;20.74;53.03;98733.69;5019902;28;47708;-61
2022/11/23 09:55:17;;;;;;;;;5.00;4.75;;;;;20.75;53.33;98732.72;5020163;28;45295;-60
2022/11/23 09:57:43;;;;;;;;;3.00;3.00;;;;;20.74;53.27;98720.44;5021212;28;45175;-60
2022/11/23 10:00:16;;;;;;;;;4.75;3.50;;;;;20.74;53.09;98723.94;5021111;28;45218;-59
2022/11/23 10:02:41;;;;;;;;;5.25;4.00;;;;;20.73;53.35;98722.22;5021134;28;46077;-60
2022/11/23 10:05:12;;;;;;;;;4.00;4.00;;;;;20.73;52.98;98714.28;5021060;28;45223;-60
2022/11/23 10:08:01;;;;;;;;;2.00;1.00;;;;;20.73;53.30;98716.94;5003874;28;45406;-60
2022/11/23 10:10:38;;;;;;;;;3.00;3.00;;;;;20.74;53.13;98713.31;5021138;28;45386;-60
2022/11/23 10:13:31;;;;;;;;;4.50;4.50;;;;;20.73;53.06;98714.28;5020760;28;46307;-59
2022/11/23 10:16:43;;;;;;;;;3.75;3.00;;;;;20.73;53.04;98708.13;5021027;28;45305;-60
2022/11/23 10:19:19;;;;;;;;;3.75;3.75;;;;;20.72;53.29;98728.47;5018814;28;45427;-60
2022/11/23 10:22:06;;;;;;;;;3.25;3.25;;;;;20.73;52.97;98750.53;5019747;28;44738;-61
2022/11/23 10:24:41;;;;;;;;;6.75;4.25;;;;;20.72;52.76;98733.78;5021062;28;47090;-60
2022/11/23 10:27:15;;;;;;;;;4.00;3.50;;;;;20.72;53.01;98743.53;5003696;28;45275;-61
2022/11/23 10:29:41;;;;;;;;;4.00;4.00;;;;;20.71;52.91;98747.16;5002708;28;45294;-60
2022/11/23 10:32:11;;;;;;;;;3.75;3.00;;;;;20.70;52.84;98740.16;5002998;28;45371;-60
2022/11/23 10:34:50;;;;;;;;;4.75;3.00;;;;;20.70;53.11;98748.94;5003323;28;46372;-60
2022/11/23 10:37:16;;;;;;;;;6.00;5.00;;;;;20.70;53.15;98746.28;4986980;28;45194;-61
2022/11/23 10:39:41;;;;;;;;;5.50;4.25;;;;;20.70;53.24;98753.41;5002767;28;45160;-60
2022/11/23 10:42:33;;;;;;;;;3.50;3.00;;;;;20.70;53.11;98759.56;5020028;28;58940;-60
2022/11/23 10:44:58;;;;;;;;;4.00;4.00;;;;;20.72;53.14;98768.25;5003122;28;45280;-60
2022/11/23 10:47:34;;;;;;;;;3.50;2.75;;;;;20.71;53.03;98745.34;5020185;28;45370;-60
2022/11/23 10:49:59;;;;;;;;;4.00;4.00;;;;;20.72;53.06;98762.94;5019647;28;45248;-60
2022/11/23 10:52:27;;;;;;;;;4.00;4.00;;;;;20.73;53.12;98764.66;5020308;28;52414;-60
2022/11/23 10:54:54;;;;;;;;;6.00;6.00;;;;;20.73;52.93;98767.28;5002697;28;46543;-61
2022/11/23 10:57:33;;;;;;;;;6.50;5.25;;;;;20.75;52.95;98749.47;5002335;28;45192;-60
2022/11/23 11:00:14;;;;;;;;;6.50;4.00;;;;;20.76;52.91;98759.16;5019253;28;45332;-60
2022/11/23 11:02:47;;;;;;;;;5.75;4.00;;;;;20.76;53.12;98760.94;5020501;28;45363;-60
2022/11/23 11:05:14;;;;;;;;;5.25;4.00;;;;;20.77;53.14;98776.78;5003351;28;45295;-60
2022/11/23 11:07:39;;;;;;;;;5.50;4.75;;;;;20.78;53.10;98769.66;5020222;28;45433;-61
2022/11/23 11:10:05;;;;;;;;;6.75;4.00;;;;;20.81;53.29;98774.75;5019072;28;45368;-62
2022/11/23 11:12:34;;;;;;;;;4.50;4.00;;;;;20.81;53.39;98774.75;5018701;28;45335;-62
2022/11/23 11:15:08;;;;;;;;;5.50;5.50;;;;;20.80;53.22;98781.88;5020118;28;46435;-62
2022/11/23 11:17:34;;;;;;;;;5.00;3.75;;;;;20.82;53.51;98779.13;5019941;28;45433;-62
2022/11/23 11:20:00;;;;;;;;;7.50;4.00;;;;;20.81;53.43;98788.03;5018852;28;45400;-61
2022/11/23 11:22:34;;;;;;;;;5.50;5.00;;;;;20.81;53.36;98799.47;5018852;28;45308;-61
2022/11/23 11:25:03;;;;;;;;;5.25;4.50;;;;;20.83;53.41;98797.56;5002633;28;48056;-62
2022/11/23 11:27:30;;;;;;;;;7.00;4.00;;;;;20.84;53.39;98801.91;5018621;28;45272;-61
2022/11/23 11:30:21;;;;;;;;;3.25;3.25;;;;;20.85;53.40;98792.19;5020228;28;45323;-60